Time;durP1;ratioP1;P1;durP2;ratioP2;P2;SDS_P1;SDS_P2;PMS_P1;PMS_P2;Temp;Humidity;BMP_temperature;BMP_pressure;BME280_temperature;BME280_humidity;BME280_pressure;Samples;Min_cycle;Max_cycle;Signal;HPM_P1;HPM_P2
2022/06/04 00:00:18;;;;;;;13.50;6.63;;;11.20;99.90;;;;;;5027264;28;20048;-72
2022/06/04 00:02:45;;;;;;;14.40;7.47;;;11.20;99.90;;;;;;5043624;28;20044;-75
2022/06/04 00:05:14;;;;;;;14.38;7.70;;;11.20;99.90;;;;;;5040066;28;20183;-72
2022/06/04 00:07:40;;;;;;;13.40;7.30;;;11.20;99.90;;;;;;5037185;28;20045;-73
2022/06/04 00:15:43;;;;;;;25.67;15.07;;;11.10;99.90;;;;;;5049524;28;20678;-72
2022/06/04 00:18:09;;;;;;;12.38;6.32;;;11.00;99.90;;;;;;5046525;28;20128;-73
2022/06/04 00:20:35;;;;;;;12.95;7.22;;;11.10;99.90;;;;;;5050704;28;20128;-72
2022/06/04 00:23:03;;;;;;;10.88;6.50;;;11.10;99.90;;;;;;5045329;28;20044;-73
2022/06/04 00:25:29;;;;;;;12.85;7.65;;;11.10;99.90;;;;;;5044726;28;20042;-73
2022/06/04 00:28:00;;;;;;;11.55;7.50;;;11.10;99.90;;;;;;5050198;28;20123;-73
2022/06/04 00:30:26;;;;;;;37.78;23.10;;;11.00;99.90;;;;;;5043540;28;20083;-73
2022/06/04 00:32:52;;;;;;;48.85;32.10;;;11.00;99.90;;;;;;5032635;28;20044;-73
2022/06/04 00:35:18;;;;;;;39.85;28.98;;;11.00;99.90;;;;;;5039642;28;20047;-74
2022/06/04 00:37:44;;;;;;;12.68;6.88;;;11.00;99.90;;;;;;5045233;28;20052;-73
2022/06/04 00:40:14;;;;;;;12.02;7.32;;;10.90;99.90;;;;;;5046631;28;20090;-73
2022/06/04 00:42:40;;;;;;;14.00;8.20;;;11.00;99.90;;;;;;5047835;28;20043;-73
2022/06/04 00:45:21;;;;;;;11.52;7.18;;;10.90;99.90;;;;;;5049719;28;20126;-73
2022/06/04 00:47:50;;;;;;;10.05;6.97;;;10.90;99.90;;;;;;5045777;28;20049;-73
2022/06/04 00:50:19;;;;;;;12.50;7.72;;;10.90;99.90;;;;;;5043716;28;20044;-73
2022/06/04 00:52:47;;;;;;;14.63;8.13;;;10.90;99.90;;;;;;5042122;28;20072;-73
2022/06/04 00:55:14;;;;;;;11.27;7.78;;;10.90;99.90;;;;;;5048703;28;20072;-72
2022/06/04 00:58:03;;;;;;;11.60;7.07;;;10.90;99.90;;;;;;5041769;28;20037;-72
2022/06/04 01:00:41;;;;;;;9.60;7.32;;;10.90;99.90;;;;;;5049155;28;20452;-73
2022/06/04 01:03:29;;;;;;;15.32;7.45;;;10.90;99.90;;;;;;5052141;28;20115;-72
2022/06/04 01:06:13;;;;;;;17.48;7.72;;;10.90;99.90;;;;;;5049344;28;20037;-72
2022/06/04 01:08:47;;;;;;;14.70;6.63;;;10.80;99.90;;;;;;5046474;28;20048;-73
2022/06/04 01:11:18;;;;;;;;;;;10.80;99.90;;;;;;5047702;28;20044;-73
2022/06/04 01:14:12;;;;;;;12.43;7.07;;;10.80;99.90;;;;;;5046670;28;19988;-73
2022/06/04 01:17:02;;;;;;;15.95;7.25;;;10.70;99.90;;;;;;5041323;28;20119;-73
2022/06/04 01:19:49;;;;;;;10.52;7.35;;;10.70;99.90;;;;;;5057461;28;20079;-72
2022/06/04 01:22:33;;;;;;;12.15;6.85;;;10.70;99.90;;;;;;5045378;28;20118;-72
2022/06/04 01:25:07;;;;;;;12.00;6.85;;;10.70;99.90;;;;;;5048817;28;20035;-73
2022/06/04 01:27:39;;;;;;;;;;;10.70;99.90;;;;;;5047564;28;20037;-73
2022/06/04 01:30:19;;;;;;;16.20;6.00;;;10.70;99.90;;;;;;5043963;28;20413;-73
2022/06/04 01:32:51;;;;;;;11.57;7.18;;;10.70;99.90;;;;;;5046795;28;20632;-73
2022/06/04 01:35:25;;;;;;;13.50;6.20;;;10.70;99.90;;;;;;5050697;28;20044;-72
2022/06/04 01:38:14;;;;;;;15.43;7.37;;;10.60;99.90;;;;;;5045278;28;20055;-73
2022/06/04 01:41:06;;;;;;;14.90;6.78;;;10.70;99.90;;;;;;5045126;28;20480;-73
2022/06/04 01:43:52;;;;;;;14.60;7.53;;;10.60;99.90;;;;;;5035819;28;20028;-71
2022/06/04 01:46:39;;;;;;;12.30;7.57;;;10.60;99.90;;;;;;5050644;28;20515;-73
2022/06/04 01:49:31;;;;;;;11.45;7.63;;;10.60;99.90;;;;;;5043506;28;20048;-73
2022/06/04 01:52:03;;;;;;;17.23;7.90;;;10.60;99.90;;;;;;5045475;28;20040;-73
2022/06/04 01:54:43;;;;;;;11.20;7.82;;;10.60;99.90;;;;;;5043666;28;20508;-74
2022/06/04 01:57:16;;;;;;;17.60;7.70;;;10.50;99.90;;;;;;5047767;28;20049;-73
2022/06/04 01:59:45;;;;;;;19.52;7.40;;;10.60;99.90;;;;;;5044402;28;20064;-73
2022/06/04 02:02:17;;;;;;;14.45;8.20;;;10.50;99.90;;;;;;5049204;28;20033;-73
2022/06/04 02:04:48;;;;;;;12.88;8.05;;;10.50;99.90;;;;;;5026146;28;20056;-72
2022/06/04 02:07:32;;;;;;;13.55;9.32;;;10.50;99.90;;;;;;5038155;28;20048;-72
2022/06/04 02:10:14;;;;;;;16.40;8.07;;;10.50;99.90;;;;;;5043632;28;20132;-72
2022/06/04 02:12:43;;;;;;;14.32;8.23;;;10.50;99.90;;;;;;5044046;28;20064;-72
2022/06/04 02:15:18;;;;;;;15.45;8.90;;;10.50;99.90;;;;;;5045224;28;20056;-72
2022/06/04 02:17:49;;;;;;;17.17;8.10;;;10.40;99.90;;;;;;5046274;28;20105;-72
2022/06/04 02:20:15;;;;;;;16.50;9.13;;;10.40;99.90;;;;;;5028356;28;20036;-73
2022/06/04 02:22:41;;;;;;;16.08;9.13;;;10.40;99.90;;;;;;5033528;28;20040;-72
2022/06/04 02:25:09;;;;;;;17.60;8.43;;;10.40;99.90;;;;;;5030454;28;20045;-72
2022/06/04 02:27:36;;;;;;;17.80;9.35;;;10.40;99.90;;;;;;5042330;28;20503;-72
2022/06/04 02:30:03;;;;;;;19.55;8.85;;;10.40;99.90;;;;;;5031438;28;20123;-72
2022/06/04 02:33:01;;;;;;;16.98;8.50;;;10.30;99.90;;;;;;5051006;28;20097;-72
2022/06/04 02:35:34;;;;;;;19.10;9.65;;;10.40;99.90;;;;;;5048584;28;20075;-72
2022/06/04 02:38:16;;;;;;;19.70;10.57;;;10.30;99.90;;;;;;5046787;28;20044;-72
2022/06/04 02:41:14;;;;;;;15.60;9.38;;;10.30;99.90;;;;;;5028799;28;20032;-72
2022/06/04 02:44:08;;;;;;;15.32;9.50;;;10.30;99.90;;;;;;5031006;28;20727;-72
2022/06/04 02:46:49;;;;;;;16.77;9.63;;;10.30;99.90;;;;;;5043881;28;20051;-72
2022/06/04 02:49:25;;;;;;;13.98;10.77;;;10.30;99.90;;;;;;5059068;28;20090;-72
2022/06/04 02:51:54;;;;;;;13.73;10.00;;;10.20;99.90;;;;;;5029122;28;20045;-72
2022/06/04 02:54:26;;;;;;;17.38;9.93;;;10.20;99.90;;;;;;5041864;28;20115;-72
2022/06/04 02:56:55;;;;;;;16.85;11.90;;;10.20;99.90;;;;;;5042036;28;20041;-72
2022/06/04 02:59:24;;;;;;;20.90;10.82;;;10.20;99.90;;;;;;5049429;28;20432;-72
2022/06/04 03:01:52;;;;;;;19.92;11.40;;;10.20;99.90;;;;;;5041989;28;20052;-72
2022/06/04 03:04:18;;;;;;;21.05;11.85;;;10.10;99.90;;;;;;5043057;28;20045;-72
2022/06/04 03:06:43;;;;;;;18.55;12.32;;;10.10;99.90;;;;;;5045271;28;20076;-72
2022/06/04 03:09:13;;;;;;;19.63;11.15;;;10.20;99.90;;;;;;5044034;28;20036;-72
2022/06/04 03:11:48;;;;;;;13.00;10.40;;;10.10;99.90;;;;;;5043970;28;20389;-72
2022/06/04 03:14:15;;;;;;;22.30;12.05;;;10.10;99.90;;;;;;5045127;28;20040;-72
2022/06/04 03:16:43;;;;;;;18.55;11.63;;;10.10;99.90;;;;;;5036777;28;20572;-72
2022/06/04 03:19:10;;;;;;;17.00;11.38;;;10.00;99.90;;;;;;5045333;28;20099;-71
2022/06/04 03:21:37;;;;;;;20.20;10.85;;;10.00;99.90;;;;;;5049597;28;20037;-73
2022/06/04 03:24:04;;;;;;;19.85;11.00;;;10.00;99.90;;;;;;5045651;28;20532;-72
2022/06/04 03:26:30;;;;;;;20.40;11.18;;;10.00;99.90;;;;;;5027217;28;20114;-72
2022/06/04 03:28:56;;;;;;;17.30;10.68;;;10.00;99.90;;;;;;5043743;28;20048;-71
2022/06/04 03:31:22;;;;;;;17.90;11.50;;;9.90;99.90;;;;;;5050013;28;20040;-71
2022/06/04 03:33:48;;;;;;;15.23;11.00;;;10.00;99.90;;;;;;5043548;28;20056;-72
2022/06/04 03:36:13;;;;;;;20.02;12.10;;;10.00;99.90;;;;;;5043699;28;20059;-71
2022/06/04 03:38:39;;;;;;;21.75;11.27;;;10.00;99.90;;;;;;5039742;28;20136;-72
2022/06/04 03:41:05;;;;;;;20.02;10.35;;;10.00;99.90;;;;;;5061162;28;20047;-72
2022/06/04 03:43:31;;;;;;;19.70;11.00;;;10.00;99.90;;;;;;5046634;28;20041;-72
2022/06/04 03:45:56;;;;;;;21.27;11.05;;;10.00;99.90;;;;;;5048757;28;20551;-72
2022/06/04 03:48:22;;;;;;;16.42;10.98;;;10.00;99.90;;;;;;5047232;28;20427;-72
2022/06/04 03:50:48;;;;;;;18.50;10.65;;;10.10;99.90;;;;;;5034172;28;20442;-72
2022/06/04 03:53:14;;;;;;;14.35;9.60;;;10.10;99.90;;;;;;5047368;28;20148;-72
2022/06/04 03:55:40;;;;;;;21.55;10.55;;;10.10;99.90;;;;;;5048655;28;20555;-72
2022/06/04 03:58:06;;;;;;;20.08;10.85;;;10.10;99.90;;;;;;5033994;28;20184;-72
2022/06/04 04:00:34;;;;;;;18.98;10.57;;;10.10;99.90;;;;;;5041271;28;20037;-72
2022/06/04 04:03:03;;;;;;;18.02;10.55;;;10.10;99.90;;;;;;5045349;28;20088;-72
2022/06/04 04:05:33;;;;;;;13.82;10.43;;;10.10;99.90;;;;;;5047887;28;20045;-71
2022/06/04 04:08:00;;;;;;;15.30;9.88;;;10.20;99.90;;;;;;5041871;28;20039;-71
2022/06/04 04:10:28;;;;;;;15.70;9.80;;;10.20;99.90;;;;;;5048304;28;20057;-72
2022/06/04 04:12:54;;;;;;;16.38;9.73;;;10.30;99.90;;;;;;5049155;28;20047;-71
2022/06/04 04:15:21;;;;;;;16.05;9.85;;;10.30;99.90;;;;;;5044692;28;20052;-71
2022/06/04 04:17:47;;;;;;;12.43;8.55;;;10.30;99.90;;;;;;5050941;28;20448;-71
2022/06/04 04:20:25;;;;;;;11.23;8.75;;;10.40;99.90;;;;;;5044980;28;20037;-71
2022/06/04 04:22:51;;;;;;;15.10;9.43;;;10.40;99.90;;;;;;5037867;28;20048;-71
2022/06/04 04:25:20;;;;;;;17.80;9.57;;;10.40;99.90;;;;;;5040066;28;20064;-71
2022/06/04 04:27:46;;;;;;;17.98;8.93;;;10.50;99.90;;;;;;5034572;28;20051;-72
2022/06/04 04:30:15;;;;;;;13.02;8.73;;;10.60;99.90;;;;;;5038423;28;20072;-72
2022/06/04 04:32:41;;;;;;;14.65;8.95;;;10.60;99.90;;;;;;5043633;28;20116;-72
2022/06/04 04:35:12;;;;;;;15.45;8.57;;;10.70;99.90;;;;;;5045694;28;20049;-73
2022/06/04 04:37:39;;;;;;;19.42;9.15;;;10.70;99.90;;;;;;5043900;28;20052;-72
2022/06/04 04:40:05;;;;;;;13.02;7.50;;;10.80;99.90;;;;;;5045645;28;20435;-72
2022/06/04 04:42:31;;;;;;;13.10;7.55;;;10.80;99.90;;;;;;5061197;28;20614;-72
2022/06/04 04:44:57;;;;;;;12.52;7.55;;;10.90;99.90;;;;;;5044311;28;20060;-72
2022/06/04 04:47:23;;;;;;;11.02;7.43;;;11.00;99.90;;;;;;5045230;28;20075;-72
2022/06/04 04:49:52;;;;;;;12.85;7.13;;;11.10;99.90;;;;;;5042506;28;20044;-71
2022/06/04 04:52:18;;;;;;;11.60;6.65;;;11.10;99.90;;;;;;5045198;28;20049;-72
2022/06/04 04:54:44;;;;;;;9.35;6.07;;;11.20;99.90;;;;;;5039626;28;20127;-73
2022/06/04 04:57:09;;;;;;;12.05;6.85;;;11.30;99.90;;;;;;5045033;28;20132;-72
2022/06/04 04:59:36;;;;;;;10.98;6.25;;;11.40;99.90;;;;;;5043046;28;20479;-72
2022/06/04 05:02:01;;;;;;;11.57;6.05;;;11.40;99.90;;;;;;5045727;28;20095;-72
2022/06/04 05:04:27;;;;;;;9.65;6.30;;;11.60;99.90;;;;;;5049369;28;20064;-73
2022/06/04 05:06:53;;;;;;;9.68;5.82;;;11.80;99.90;;;;;;5043505;28;20075;-73
2022/06/04 05:09:18;;;;;;;9.85;5.68;;;11.90;99.90;;;;;;5047133;28;20041;-73
2022/06/04 05:11:44;;;;;;;6.57;5.15;;;12.10;99.90;;;;;;5026963;28;20106;-73
2022/06/04 05:14:10;;;;;;;9.75;5.28;;;12.40;99.90;;;;;;5045964;28;20059;-72
2022/06/04 05:16:38;;;;;;;55.28;45.67;;;12.70;99.90;;;;;;5043920;28;20095;-73
2022/06/04 05:19:04;;;;;;;10.55;5.47;;;12.70;99.90;;;;;;5044192;28;20122;-72
2022/06/04 05:21:46;;;;;;;12.85;5.60;;;12.50;99.90;;;;;;5045434;28;20037;-71
2022/06/04 05:24:22;;;;;;;9.48;4.93;;;12.50;99.90;;;;;;5043183;28;20044;-73
2022/06/04 05:26:49;;;;;;;7.28;4.82;;;12.40;99.90;;;;;;5047396;28;20055;-72
2022/06/04 05:29:16;;;;;;;10.10;5.20;;;12.40;99.90;;;;;;5045678;28;20040;-73
2022/06/04 05:31:41;;;;;;;11.88;5.28;;;12.40;99.90;;;;;;5044111;28;20451;-73
2022/06/04 05:34:09;;;;;;;10.30;4.85;;;12.30;99.90;;;;;;5044016;28;20072;-72
2022/06/04 05:36:35;;;;;;;6.82;4.80;;;12.20;99.90;;;;;;5039898;28;20112;-71
2022/06/04 05:39:01;;;;;;;7.82;4.40;;;12.30;99.90;;;;;;5021576;28;20037;-73
2022/06/04 05:41:27;;;;;;;7.78;4.93;;;12.40;99.90;;;;;;5040800;28;20079;-72
2022/06/04 05:43:53;;;;;;;9.68;5.70;;;12.40;99.90;;;;;;5039339;28;20040;-73
2022/06/04 05:46:20;;;;;;;8.55;5.13;;;12.50;99.90;;;;;;5040348;28;20048;-71
2022/06/04 05:48:46;;;;;;;8.32;4.70;;;12.50;99.90;;;;;;5002850;28;20474;-72
2022/06/04 05:51:15;;;;;;;7.50;4.75;;;12.50;99.90;;;;;;5024363;28;20046;-72
2022/06/04 05:53:41;;;;;;;7.95;5.15;;;12.60;99.90;;;;;;5023960;28;20409;-73
2022/06/04 05:56:19;;;;;;;8.13;4.45;;;12.60;99.90;;;;;;5027373;28;20040;-73
2022/06/04 05:58:46;;;;;;;8.18;3.92;;;12.70;99.90;;;;;;5022505;28;20046;-73
2022/06/04 06:01:13;;;;;;;6.72;4.60;;;12.90;99.90;;;;;;5004994;28;20076;-73
2022/06/04 06:03:40;;;;;;;8.73;4.20;;;13.00;99.90;;;;;;5002587;28;20038;-73
2022/06/04 06:06:12;;;;;;;7.22;4.15;;;13.10;99.90;;;;;;5018843;28;20030;-73
2022/06/04 06:08:38;;;;;;;7.40;4.38;;;13.20;99.90;;;;;;5020551;28;20053;-73
2022/06/04 06:11:09;;;;;;;8.15;4.22;;;13.30;99.90;;;;;;5020914;28;20060;-74
2022/06/04 06:13:35;;;;;;;6.72;4.00;;;13.30;99.90;;;;;;5001140;28;20046;-73
2022/06/04 06:16:06;;;;;;;7.22;4.10;;;13.30;99.90;;;;;;5024218;28;20071;-72
2022/06/04 06:18:33;;;;;;;6.82;4.25;;;13.40;99.90;;;;;;5024061;28;20038;-72
2022/06/04 06:20:59;;;;;;;7.90;3.97;;;13.30;99.90;;;;;;5005148;28;20493;-74
2022/06/04 06:23:25;;;;;;;7.00;4.20;;;13.30;99.90;;;;;;5007065;28;20103;-73
2022/06/04 06:25:50;;;;;;;50.85;43.38;;;13.40;99.90;;;;;;5017954;28;20119;-73
2022/06/04 06:28:16;;;;;;;10.07;5.10;;;13.60;99.90;;;;;;5002293;28;20076;-73
2022/06/04 06:30:42;;;;;;;8.38;4.38;;;13.80;99.90;;;;;;4992616;28;20049;-75
2022/06/04 06:33:08;;;;;;;6.72;4.43;;;14.00;99.90;;;;;;5008255;28;20045;-72
2022/06/04 06:35:34;;;;;;;6.55;3.90;;;14.10;99.90;;;;;;5024220;28;20142;-74
2022/06/04 06:38:00;;;;;;;8.07;4.65;;;14.20;99.90;;;;;;5022319;28;20128;-74
2022/06/04 06:40:25;;;;;;;6.50;3.88;;;14.20;99.90;;;;;;5005592;28;20102;-75
2022/06/04 06:42:51;;;;;;;7.15;3.78;;;14.20;99.90;;;;;;5010408;28;20049;-74
2022/06/04 06:45:17;;;;;;;7.22;5.03;;;14.30;99.90;;;;;;5025400;28;20051;-75
2022/06/04 06:47:44;;;;;;;8.63;3.95;;;14.30;99.90;;;;;;5015358;28;20122;-75
2022/06/04 06:50:12;;;;;;;6.88;3.92;;;14.40;99.90;;;;;;5031448;28;20044;-74
2022/06/04 06:52:37;;;;;;;11.82;7.00;;;14.40;99.90;;;;;;5022358;28;20073;-74
2022/06/04 06:55:04;;;;;;;5.53;3.90;;;14.60;99.90;;;;;;5035953;28;20515;-74
2022/06/04 06:57:29;;;;;;;4.78;3.70;;;14.70;99.90;;;;;;5034413;28;20750;-75
2022/06/04 06:59:56;;;;;;;7.78;3.83;;;14.90;99.90;;;;;;5038705;28;20052;-73
2022/06/04 07:02:22;;;;;;;5.63;4.05;;;15.00;99.90;;;;;;5039907;28;20061;-74
2022/06/04 07:04:48;;;;;;;5.90;3.20;;;15.00;99.90;;;;;;5040460;28;20413;-74
2022/06/04 07:07:13;;;;;;;6.68;4.25;;;14.90;99.90;;;;;;5028160;28;20393;-74
2022/06/04 07:09:41;;;;;;;5.45;3.65;;;14.80;99.90;;;;;;5033044;28;20118;-75
2022/06/04 07:12:09;;;;;;;5.32;3.40;;;14.90;99.90;;;;;;5021923;28;20182;-75
2022/06/04 07:14:35;;;;;;;6.55;3.90;;;15.00;99.90;;;;;;5039505;28;20063;-74
2022/06/04 07:17:05;;;;;;;4.97;3.40;;;15.30;99.90;;;;;;5038702;28;20054;-75
2022/06/04 07:19:31;;;;;;;5.90;4.00;;;15.40;99.90;;;;;;5033346;28;20079;-72
2022/06/04 07:21:57;;;;;;;5.72;4.13;;;15.30;99.90;;;;;;5042139;28;20029;-74
2022/06/04 07:24:23;;;;;;;6.13;3.40;;;15.40;99.90;;;;;;5047696;28;20029;-75
2022/06/04 07:26:49;;;;;;;6.85;3.78;;;15.40;99.90;;;;;;5044812;28;20119;-75
2022/06/04 07:29:15;;;;;;;5.70;3.30;;;15.50;99.90;;;;;;5046097;28;20060;-75
2022/06/04 07:31:41;;;;;;;6.35;3.55;;;15.40;99.90;;;;;;5027791;28;20052;-74
2022/06/04 07:34:07;;;;;;;6.72;3.75;;;15.50;99.90;;;;;;5024142;28;20063;-74
2022/06/04 07:36:36;;;;;;;4.43;3.75;;;15.50;99.90;;;;;;5042644;28;20076;-74
2022/06/04 07:39:05;;;;;;;7.82;5.30;;;15.60;99.90;;;;;;5048147;28;20060;-74
2022/06/04 07:41:38;;;;;;;8.25;3.60;;;15.70;99.90;;;;;;5036544;28;20057;-74
2022/06/04 07:44:06;;;;;;;8.38;3.38;;;15.70;99.90;;;;;;5032454;28;20045;-74
2022/06/04 07:46:32;;;;;;;5.55;3.63;;;15.80;99.90;;;;;;5039899;28;20052;-74
2022/06/04 07:49:03;;;;;;;5.63;3.70;;;15.70;99.90;;;;;;5033529;28;20045;-74
2022/06/04 07:51:30;;;;;;;6.68;3.67;;;15.70;99.90;;;;;;5045346;28;20182;-74
2022/06/04 07:53:56;;;;;;;5.40;3.63;;;15.60;99.90;;;;;;5048333;28;20056;-76
2022/06/04 07:56:23;;;;;;;6.72;3.83;;;15.60;99.90;;;;;;5045471;28;20205;-75
2022/06/04 07:58:49;;;;;;;3.83;3.45;;;15.60;99.90;;;;;;5048161;28;20045;-74
2022/06/04 08:01:18;;;;;;;5.20;3.95;;;15.80;99.90;;;;;;5048265;28;20067;-75
2022/06/04 08:03:45;;;;;;;6.28;3.67;;;16.10;99.90;;;;;;5038679;28;20091;-74
2022/06/04 08:06:13;;;;;;;6.35;3.78;;;16.50;99.90;;;;;;5043018;28;20128;-75
2022/06/04 08:08:40;;;;;;;7.32;3.90;;;16.70;99.90;;;;;;5036856;28;20052;-77
2022/06/04 08:11:30;;;;;;;6.13;3.70;;;16.70;99.90;;;;;;5050804;28;20048;-76
2022/06/04 08:13:52;;;;;;;6.18;4.93;;;16.70;99.90;;;;;;5044812;28;20056;-74
2022/06/04 08:16:18;;;;;;;7.50;3.78;;;16.60;99.90;;;;;;5041201;28;20052;-73
2022/06/04 08:18:45;;;;;;;5.80;4.10;;;16.50;99.90;;;;;;5041636;28;20056;-74
2022/06/04 08:21:11;;;;;;;7.72;3.80;;;16.60;99.90;;;;;;5047417;28;20123;-76
2022/06/04 08:23:39;;;;;;;5.78;3.95;;;16.50;99.90;;;;;;5040016;28;20084;-74
2022/06/04 08:26:08;;;;;;;6.63;4.30;;;16.50;99.90;;;;;;5030205;28;20064;-74
2022/06/04 08:28:34;;;;;;;4.50;3.35;;;16.50;99.90;;;;;;5037990;28;20062;-73
2022/06/04 08:31:03;;;;;;;7.45;4.07;;;16.60;99.90;;;;;;5042128;28;20496;-74
2022/06/04 08:33:28;;;;;;;8.77;4.03;;;16.70;99.90;;;;;;5040850;28;20061;-73
2022/06/04 08:35:54;;;;;;;6.63;3.83;;;16.80;99.90;;;;;;5025962;28;20047;-74
2022/06/04 08:38:20;;;;;;;6.25;3.80;;;17.10;99.90;;;;;;5043263;28;20105;-74
2022/06/04 08:40:51;;;;;;;5.65;3.97;;;17.20;99.90;;;;;;5030985;28;20045;-73
2022/06/04 08:43:51;;;;;;;4.65;3.85;;;17.40;99.90;;;;;;5028144;28;20045;-75
2022/06/04 08:49:17;;;;;;;4.65;3.80;;;17.60;99.90;;;;;;5103253;27;1256667;-72
2022/06/04 08:51:44;;;;;;;5.72;3.50;;;18.10;99.90;;;;;;5096230;28;21909;-73
2022/06/04 08:59:58;;;;;;;4.57;3.03;;;18.70;97.30;;;;;;5105086;28;20151;-65
2022/06/04 09:02:38;;;;;;;5.07;3.40;;;18.70;94.40;;;;;;5120071;28;20117;-65
2022/06/04 09:05:17;;;;;;;4.18;2.67;;;18.80;94.10;;;;;;5100196;28;20131;-65
2022/06/04 09:07:49;;;;;;;6.50;3.22;;;19.00;92.10;;;;;;5119820;28;20123;-70
2022/06/04 09:10:21;;;;;;;5.55;3.40;;;19.10;92.00;;;;;;5097701;28;20544;-69
2022/06/04 09:12:51;;;;;;;4.47;2.60;;;19.50;92.10;;;;;;5116562;28;20349;-69
2022/06/04 09:15:37;;;;;;;4.45;3.35;;;19.90;91.50;;;;;;5111777;28;20040;-72
2022/06/04 09:18:31;;;;;;;5.20;2.90;;;20.00;90.30;;;;;;5094436;28;20043;-73
2022/06/04 09:21:00;;;;;;;5.68;3.10;;;20.20;90.80;;;;;;5078622;28;20087;-73
2022/06/04 09:23:41;;;;;;;4.45;3.45;;;20.40;90.60;;;;;;5112461;28;20039;-69
2022/06/04 09:26:13;;;;;;;5.80;3.97;;;20.30;86.60;;;;;;5100709;28;20039;-68
2022/06/04 09:29:20;;;;;;;5.85;3.58;;;20.30;86.30;;;;;;5098988;28;20134;-67
2022/06/04 09:32:06;;;;;;;4.00;3.08;;;20.10;86.60;;;;;;5118470;28;20031;-67
2022/06/04 09:34:42;;;;;;;3.97;2.83;;;19.70;87.50;;;;;;5098300;28;20040;-67
2022/06/04 09:37:10;;;;;;;4.80;3.47;;;19.90;86.50;;;;;;5117713;28;20046;-68
2022/06/04 09:39:38;;;;;;;5.78;3.40;;;20.20;89.10;;;;;;5111233;28;20126;-68
2022/06/04 09:42:13;;;;;;;6.13;3.78;;;20.60;87.10;;;;;;5115423;28;20039;-68
2022/06/04 09:45:20;;;;;;;7.00;4.03;;;20.80;85.30;;;;;;5113459;28;20127;-67
2022/06/04 09:47:52;;;;;;;6.30;3.85;;;21.10;81.60;;;;;;5105102;28;20040;-67
2022/06/04 09:50:24;;;;;;;5.45;3.67;;;21.30;81.90;;;;;;5117084;28;20467;-67
2022/06/04 09:53:21;;;;;;;5.05;3.83;;;21.30;81.30;;;;;;5096402;28;20043;-67
2022/06/04 09:55:58;;;;;;;4.85;3.22;;;21.50;82.10;;;;;;5117494;28;20071;-68
2022/06/04 09:58:39;;;;;;;5.63;3.75;;;21.60;80.20;;;;;;5116128;28;20515;-68
2022/06/04 10:01:08;;;;;;;5.70;3.83;;;21.50;77.90;;;;;;5099730;28;20458;-66
2022/06/04 10:03:37;;;;;;;6.22;3.83;;;21.50;78.50;;;;;;5084075;28;20056;-74
2022/06/04 10:06:12;;;;;;;4.70;3.70;;;21.60;78.10;;;;;;5079857;28;20059;-68
2022/06/04 10:11:37;;;;;;;3.83;3.13;;;21.90;77.00;;;;;;5102441;28;20494;-69
2022/06/04 10:14:03;;;;;;;4.85;3.30;;;22.10;76.40;;;;;;5104932;28;20040;-70
2022/06/04 10:16:39;;;;;;;5.70;3.60;;;22.40;76.30;;;;;;5102706;28;20113;-69
2022/06/04 10:19:20;;;;;;;4.80;3.40;;;22.70;75.90;;;;;;5100819;28;20040;-68
2022/06/04 10:21:49;;;;;;;5.38;3.00;;;22.70;71.50;;;;;;5080165;28;20051;-70
2022/06/04 10:24:23;;;;;;;5.10;3.17;;;22.30;73.70;;;;;;5098349;28;20044;-68
2022/06/04 10:27:05;;;;;;;3.30;2.53;;;21.80;69.50;;;;;;5060093;28;20044;-69
2022/06/04 10:29:49;;;;;;;3.33;2.40;;;21.60;72.00;;;;;;5098469;28;20039;-68
2022/06/04 10:32:23;;;;;;;4.57;2.77;;;21.40;70.50;;;;;;5078815;28;20054;-67
2022/06/04 10:35:12;;;;;;;4.10;3.22;;;21.40;72.80;;;;;;5102482;28;20039;-67
2022/06/04 10:37:43;;;;;;;3.70;3.05;;;21.80;71.70;;;;;;5097356;28;20086;-67
2022/06/04 10:40:20;;;;;;;5.75;2.67;;;22.40;72.00;;;;;;5102581;28;20099;-68
2022/06/04 10:43:09;;;;;;;4.57;2.90;;;22.60;69.60;;;;;;5084779;28;20126;-68
2022/06/04 10:45:43;;;;;;;5.45;2.40;;;22.50;67.80;;;;;;5109418;28;20039;-68
2022/06/04 10:48:27;;;;;;;3.35;2.30;;;22.30;68.40;;;;;;5100974;28;20055;-68
2022/06/04 10:51:27;;;;;;;4.10;2.22;;;22.30;70.10;;;;;;5099800;28;20404;-68
2022/06/04 10:54:14;;;;;;;4.07;2.40;;;22.40;67.70;;;;;;5093757;28;20040;-68
2022/06/04 10:56:50;;;;;;;4.07;2.53;;;22.60;70.00;;;;;;5101858;28;20517;-69
2022/06/04 10:59:24;;;;;;;4.15;2.00;;;22.50;67.40;;;;;;5081024;28;20075;-74
2022/06/04 11:01:59;;;;;;;3.10;2.13;;;22.40;67.20;;;;;;5085983;28;20048;-71
2022/06/04 11:04:38;;;;;;;3.40;1.92;;;22.70;68.20;;;;;;5089222;28;20059;-71
2022/06/04 11:07:21;;;;;;;3.30;1.98;;;22.90;67.80;;;;;;5101911;28;20420;-69
2022/06/04 11:09:50;;;;;;;4.60;2.30;;;23.20;64.30;;;;;;5102434;28;20051;-70
2022/06/04 11:12:52;;;;;;;3.00;1.80;;;23.20;63.70;;;;;;5098623;28;20032;-71
2022/06/04 11:15:47;;;;;;;5.82;2.20;;;23.30;63.50;;;;;;5099401;28;20036;-72
2022/06/04 11:18:17;;;;;;;2.85;2.03;;;23.60;65.00;;;;;;5057625;28;20052;-71
2022/06/04 11:21:08;;;;;;;4.60;2.17;;;23.70;62.90;;;;;;5084559;28;20115;-69
2022/06/04 11:24:11;;;;;;;2.20;1.70;;;23.70;61.60;;;;;;5053070;28;20055;-73
2022/06/04 11:26:48;;;;;;;4.80;2.33;;;23.40;60.00;;;;;;5086613;28;20055;-69
2022/06/04 11:29:14;;;;;;;4.18;2.20;;;23.30;61.50;;;;;;5082010;28;20131;-70
2022/06/04 11:31:49;;;;;;;4.88;2.28;;;23.40;63.60;;;;;;5083549;28;20050;-71
2022/06/04 11:34:14;;;;;;;4.72;2.00;;;23.40;62.50;;;;;;5085781;28;20051;-76
2022/06/04 11:36:59;;;;;;;3.67;2.08;;;23.20;62.60;;;;;;5087272;28;20047;-69
2022/06/04 11:39:52;;;;;;;3.45;1.80;;;23.30;61.20;;;;;;5097533;28;20048;-66
2022/06/04 11:42:51;;;;;;;5.43;2.10;;;23.00;60.90;;;;;;5082444;28;20503;-66
2022/06/04 11:45:47;;;;;;;8.65;1.92;;;22.60;62.00;;;;;;5095347;28;20136;-67
2022/06/04 11:48:49;;;;;;;3.38;1.70;;;22.50;63.10;;;;;;5078927;28;20048;-66
2022/06/04 11:51:24;;;;;;;4.93;2.17;;;22.40;62.50;;;;;;5086061;28;20042;-68
2022/06/04 11:54:36;;;;;;;3.38;2.00;;;22.50;63.90;;;;;;5082124;28;20134;-70
2022/06/04 11:57:09;;;;;;;4.07;2.05;;;22.40;61.60;;;;;;5006980;28;20045;-71
2022/06/04 11:59:59;;;;;;;3.25;2.00;;;22.20;63.60;;;;;;5070147;28;20131;-71
2022/06/04 12:02:32;;;;;;;3.53;2.05;;;22.30;64.90;;;;;;5083364;28;20043;-71
2022/06/04 12:04:57;;;;;;;5.00;1.90;;;22.60;64.90;;;;;;5076593;28;20540;-70
2022/06/04 12:07:39;;;;;;;3.60;2.15;;;22.70;63.50;;;;;;5095431;28;20050;-70
2022/06/04 12:10:41;;;;;;;4.10;2.05;;;22.70;63.50;;;;;;5080872;28;20062;-69
2022/06/04 12:13:25;;;;;;;3.55;1.67;;;22.60;63.10;;;;;;5103522;28;20050;-69
2022/06/04 12:16:06;;;;;;;3.72;1.90;;;22.60;64.30;;;;;;5097216;28;20399;-69
2022/06/04 12:18:43;;;;;;;4.28;2.13;;;22.60;64.70;;;;;;5103253;28;20055;-69
2022/06/04 12:24:16;;;;;;;3.65;2.00;;;22.50;62.40;;;;;;5079389;28;20050;-70
2022/06/04 12:26:47;;;;;;;2.67;2.00;;;22.30;62.90;;;;;;5075766;28;20114;-70
2022/06/04 12:29:28;;;;;;;3.08;2.13;;;22.40;62.90;;;;;;5079146;28;20051;-68
2022/06/04 12:32:00;;;;;;;6.15;2.20;;;22.30;60.50;;;;;;5094158;28;20104;-69
2022/06/04 12:34:39;;;;;;;2.90;1.80;;;22.10;62.40;;;;;;5070015;28;20118;-69
2022/06/04 12:37:20;;;;;;;3.85;2.20;;;22.10;63.00;;;;;;5098183;28;20054;-68
2022/06/04 12:39:46;;;;;;;6.20;2.20;;;22.30;62.60;;;;;;5103490;28;20060;-68
2022/06/04 12:42:23;;;;;;;3.55;2.22;;;22.40;63.60;;;;;;5099591;28;20140;-68
2022/06/04 12:45:02;;;;;;;3.78;2.00;;;22.40;63.00;;;;;;5084153;28;20152;-68
2022/06/04 12:47:31;;;;;;;2.42;1.70;;;22.30;63.20;;;;;;5096879;28;20064;-68
2022/06/04 12:49:57;;;;;;;3.67;1.83;;;22.30;62.60;;;;;;5101350;28;20040;-68
2022/06/04 12:52:49;;;;;;;2.78;1.70;;;22.20;62.30;;;;;;5097980;28;20047;-67
2022/06/04 12:55:24;;;;;;;2.72;2.10;;;22.20;62.00;;;;;;5102040;28;20374;-67
2022/06/04 12:58:01;;;;;;;3.83;2.03;;;22.40;60.70;;;;;;5099369;28;20040;-67
2022/06/04 13:00:33;;;;;;;2.17;1.50;;;22.30;62.30;;;;;;5102329;28;20747;-66
2022/06/04 13:03:08;;;;;;;2.67;1.50;;;22.40;62.00;;;;;;5103992;28;20043;-66
2022/06/04 13:05:54;;;;;;;4.50;2.03;;;22.30;61.00;;;;;;5102296;28;20063;-66
2022/06/04 13:08:20;;;;;;;2.92;1.52;;;22.40;60.60;;;;;;5099479;28;20397;-66
2022/06/04 13:11:06;;;;;;;4.45;1.65;;;22.20;61.50;;;;;;5083694;28;20054;-66
2022/06/04 13:14:13;;;;;;;4.32;1.90;;;22.10;60.50;;;;;;5097189;28;20054;-66
2022/06/04 13:16:55;;;;;;;2.85;1.70;;;21.90;62.80;;;;;;5089344;28;20490;-66
2022/06/04 13:20:02;;;;;;;3.28;1.80;;;22.10;64.40;;;;;;5096164;28;20523;-66
2022/06/04 13:22:34;;;;;;;4.13;2.03;;;22.10;63.90;;;;;;5096735;28;20078;-66
2022/06/04 13:25:05;;;;;;;6.80;5.93;;;22.20;65.20;;;;;;5101807;28;20725;-66
2022/06/04 13:27:47;;;;;;;3.67;1.75;;;22.30;63.70;;;;;;5098285;28;20155;-66
2022/06/04 13:30:33;;;;;;;4.15;2.00;;;22.30;64.00;;;;;;5101188;28;20031;-66
2022/06/04 13:33:13;;;;;;;2.90;1.90;;;22.20;62.80;;;;;;5100043;28;20036;-66